Time;durP1;ratioP1;P1;durP2;ratioP2;P2;SDS_P1;SDS_P2;PMS_P1;PMS_P2;Temp;Humidity;BMP_temperature;BMP_pressure;BME280_temperature;BME280_humidity;BME280_pressure;Samples;Min_cycle;Max_cycle;Signal;HPM_P1;HPM_P2
2022/01/10 00:02:43;;;;;;;31.33;13.77;;;;;0.20;100547.00;;;;9864280;30;20261;-79
2022/01/10 00:07:46;;;;;;;23.57;12.43;;;;;0.20;100546.00;;;;9869208;29;20699;-79
2022/01/10 00:12:48;;;;;;;28.87;13.50;;;;;0.30;100563.00;;;;9901328;29;20277;-80
2022/01/10 00:17:51;;;;;;;31.43;14.07;;;;;0.30;100562.00;;;;9887476;29;20199;-79
2022/01/10 00:22:53;;;;;;;37.53;14.23;;;;;0.30;100556.00;;;;9901451;29;20623;-80
2022/01/10 00:27:56;;;;;;;24.73;13.27;;;;;0.30;100563.00;;;;9887367;29;20223;-80
2022/01/10 00:32:57;;;;;;;26.63;12.20;;;;;0.30;100561.00;;;;9878607;30;20208;-80
2022/01/10 00:37:59;;;;;;;26.70;12.60;;;;;0.40;100578.00;;;;9885550;29;20213;-80
2022/01/10 00:43:02;;;;;;;29.13;13.70;;;;;0.50;100580.00;;;;9879254;30;20292;-79
2022/01/10 00:48:04;;;;;;;33.93;13.67;;;;;0.50;100581.00;;;;9878646;30;20320;-80
2022/01/10 00:53:06;;;;;;;31.07;15.10;;;;;0.50;100595.00;;;;9887696;29;20207;-80
2022/01/10 00:58:08;;;;;;;31.23;13.50;;;;;0.40;100605.00;;;;9915735;29;20214;-80
2022/01/10 01:03:10;;;;;;;30.67;14.43;;;;;0.30;100602.00;;;;9900497;29;20545;-80
2022/01/10 01:08:13;;;;;;;28.53;15.40;;;;;0.30;100608.00;;;;9890351;29;20283;-80
2022/01/10 01:13:28;;;;;;;35.30;15.07;;;;;0.30;100607.00;;;;9900850;29;20194;-80
2022/01/10 01:28:59;;;;;;;28.53;14.33;;;;;0.40;100647.00;;;;9899963;29;20219;-80
2022/01/10 01:34:02;;;;;;;33.53;16.40;;;;;0.30;100647.00;;;;9914395;29;20248;-80
2022/01/10 01:39:16;;;;;;;40.77;15.97;;;;;0.30;100652.00;;;;9899215;29;20211;-80
2022/01/10 01:44:18;;;;;;;29.70;15.00;;;;;0.30;100666.00;;;;9916218;29;20257;-80
2022/01/10 01:49:21;;;;;;;32.37;14.50;;;;;0.30;100666.00;;;;9885729;30;20228;-80
2022/01/10 01:54:23;;;;;;;30.23;15.70;;;;;0.40;100688.00;;;;9899186;30;20204;-79
2022/01/10 01:59:25;;;;;;;46.17;17.10;;;;;0.40;100710.00;;;;9869488;30;20206;-79
2022/01/10 02:04:27;;;;;;;43.43;16.53;;;;;0.40;100710.00;;;;9869978;30;20206;-80
2022/01/10 02:09:32;;;;;;;37.77;17.50;;;;;0.40;100726.00;;;;9907396;29;20237;-80
2022/01/10 02:14:34;;;;;;;32.80;15.90;;;;;0.20;100737.00;;;;9906680;29;20320;-80
2022/01/10 02:19:36;;;;;;;36.47;15.23;;;;;0.00;100722.00;;;;9921112;29;20675;-80
2022/01/10 02:24:38;;;;;;;28.53;13.93;;;;;-0.30;100738.00;;;;9891943;29;20203;-80
2022/01/10 02:29:42;;;;;;;31.07;14.37;;;;;-0.40;100748.00;;;;9906106;29;20230;-80
2022/01/10 02:34:45;;;;;;;31.20;14.77;;;;;-0.40;100762.00;;;;9891423;29;20234;-80
2022/01/10 02:39:47;;;;;;;36.73;15.00;;;;;-0.50;100763.00;;;;9888709;29;20237;-79
2022/01/10 02:44:49;;;;;;;31.07;15.03;;;;;-0.50;100767.00;;;;9919822;29;20187;-80
2022/01/10 02:49:51;;;;;;;36.47;15.70;;;;;-0.50;100782.00;;;;9920201;29;20254;-80
2022/01/10 02:54:53;;;;;;;34.20;15.73;;;;;-0.50;100782.00;;;;9919538;29;20199;-79
2022/01/10 02:59:57;;;;;;;36.43;17.47;;;;;-0.60;100793.00;;;;9920230;29;20207;-80
2022/01/10 03:04:59;;;;;;;31.13;15.43;;;;;-0.60;100795.00;;;;9904640;29;20210;-80
2022/01/10 03:10:03;;;;;;;37.87;15.90;;;;;-0.70;100803.00;;;;9902726;29;20231;-80
2022/01/10 03:15:08;;;;;;;31.20;14.97;;;;;-0.50;100806.00;;;;9905449;29;20295;-80
2022/01/10 03:20:10;;;;;;;37.90;16.87;;;;;-0.30;100815.00;;;;9889360;29;20207;-80
2022/01/10 03:25:13;;;;;;;33.90;15.57;;;;;-0.30;100797.00;;;;9889642;29;20203;-80
2022/01/10 03:30:18;;;;;;;32.87;14.97;;;;;-0.10;100812.00;;;;9882244;30;20251;-79
2022/01/10 03:35:21;;;;;;;23.60;13.70;;;;;-0.10;100835.00;;;;9911341;30;20207;-81
2022/01/10 03:40:23;;;;;;;36.93;15.97;;;;;0.00;100844.00;;;;9879747;30;20661;-80
2022/01/10 03:45:28;;;;;;;31.50;15.53;;;;;-0.10;100855.00;;;;9896053;30;20206;-81
2022/01/10 03:50:30;;;;;;;41.87;17.47;;;;;-0.20;100868.00;;;;9881258;30;20227;-80
2022/01/10 03:55:32;;;;;;;36.50;16.10;;;;;-0.20;100873.00;;;;9895337;30;20203;-81
2022/01/10 04:00:37;;;;;;;34.87;16.83;;;;;-0.30;100896.00;;;;9881258;30;20249;-80
2022/01/10 04:05:39;;;;;;;34.83;15.50;;;;;-0.40;100909.00;;;;9895588;30;20199;-80
2022/01/10 04:10:41;;;;;;;39.83;18.03;;;;;-0.50;100913.00;;;;9881437;29;20235;-79
2022/01/10 04:15:45;;;;;;;41.50;17.50;;;;;-0.60;100936.00;;;;9902430;29;20213;-81
2022/01/10 04:20:47;;;;;;;36.13;17.87;;;;;-0.70;100947.00;;;;9902853;29;20202;-79
2022/01/10 04:25:49;;;;;;;33.03;16.97;;;;;-0.80;100937.00;;;;9917041;29;20211;-79
2022/01/10 04:30:52;;;;;;;35.30;16.40;;;;;-0.80;100937.00;;;;9917652;29;20230;-81
2022/01/10 04:35:55;;;;;;;31.20;17.40;;;;;-0.80;100967.00;;;;9902012;29;20219;-80
2022/01/10 04:40:57;;;;;;;29.63;17.10;;;;;-0.70;100965.00;;;;9932318;29;20195;-80
2022/01/10 04:45:59;;;;;;;27.30;16.20;;;;;-0.60;100977.00;;;;9902360;29;20230;-80
2022/01/10 04:56:08;;;;;;;37.33;18.90;;;;;-0.50;101015.00;;;;9901457;29;20724;-81
2022/01/10 05:01:10;;;;;;;31.93;17.60;;;;;-0.50;101020.00;;;;9902118;29;20198;-80
2022/01/10 05:06:12;;;;;;;32.70;17.67;;;;;-0.50;101026.00;;;;9902457;29;20292;-79
2022/01/10 05:11:16;;;;;;;30.30;16.17;;;;;-0.50;101036.00;;;;9887252;29;20226;-80
2022/01/10 05:16:19;;;;;;;32.90;15.83;;;;;-0.50;101053.00;;;;9902193;29;21022;-80
2022/01/10 05:21:21;;;;;;;34.47;18.33;;;;;-0.50;101046.00;;;;9908304;29;20258;-80
2022/01/10 05:26:23;;;;;;;35.57;19.27;;;;;-0.50;101050.00;;;;9901364;29;20219;-80
2022/01/10 05:31:25;;;;;;;33.30;17.97;;;;;-0.50;101074.00;;;;9886482;30;20269;-80
2022/01/10 05:36:38;;;;;;;30.27;16.53;;;;;-0.50;101091.00;;;;9892936;29;20210;-80
2022/01/10 05:41:40;;;;;;;39.33;17.70;;;;;-0.50;101102.00;;;;9907250;29;20207;-81
2022/01/10 05:46:43;;;;;;;35.17;16.90;;;;;-0.50;101105.00;;;;9893345;29;20233;-80
2022/01/10 05:51:49;;;;;;;28.83;16.50;;;;;-0.40;101104.00;;;;9893651;29;20852;-79
2022/01/10 05:57:09;;;;;;;30.90;16.57;;;;;-0.40;101109.00;;;;9901826;29;20282;-81
2022/01/10 06:02:18;;;;;;;30.93;16.60;;;;;-0.40;101124.00;;;;9915602;29;20199;-79
2022/01/10 06:07:20;;;;;;;34.33;17.10;;;;;-0.40;101124.00;;;;9922034;29;20599;-80
2022/01/10 06:12:23;;;;;;;28.50;15.43;;;;;-0.40;101127.00;;;;9922775;29;20694;-82
2022/01/10 06:17:25;;;;;;;28.47;14.57;;;;;-0.40;101138.00;;;;9907704;29;20279;-81
2022/01/10 06:22:28;;;;;;;32.13;15.50;;;;;-0.40;101144.00;;;;9892511;29;20204;-81
2022/01/10 06:27:30;;;;;;;32.80;14.77;;;;;-0.50;101149.00;;;;9884820;30;20212;-80
2022/01/10 06:32:33;;;;;;;29.20;13.00;;;;;-0.50;101142.00;;;;9883894;30;20764;-81
2022/01/10 06:37:36;;;;;;;26.40;13.27;;;;;-0.50;101163.00;;;;9902301;29;20653;-81
2022/01/10 06:42:38;;;;;;;27.27;13.93;;;;;-0.50;101163.00;;;;9906827;29;20209;-80
2022/01/10 06:47:41;;;;;;;29.13;13.53;;;;;-0.60;101170.00;;;;9890639;29;20222;-80
2022/01/10 06:52:45;;;;;;;24.13;13.20;;;;;-0.70;101173.00;;;;9906042;29;20195;-80
2022/01/10 06:57:48;;;;;;;27.13;13.67;;;;;-0.70;101191.00;;;;9905935;29;20213;-80
2022/01/10 07:02:55;;;;;;;27.90;14.27;;;;;-0.80;101214.00;;;;9920558;29;20203;-81
2022/01/10 07:07:57;;;;;;;26.90;12.07;;;;;-0.90;101230.00;;;;9919635;29;20239;-79
2022/01/10 07:13:09;;;;;;;23.83;12.43;;;;;-1.00;101257.00;;;;9905619;29;20224;-80
2022/01/10 07:18:12;;;;;;;26.93;13.73;;;;;-1.10;101254.00;;;;9920004;29;20196;-80
2022/01/10 07:23:18;;;;;;;19.57;10.60;;;;;-1.10;101284.00;;;;9919593;29;20199;-80
2022/01/10 07:28:20;;;;;;;23.63;11.50;;;;;-1.10;101302.00;;;;9888163;29;20290;-81
2022/01/10 07:33:21;;;;;;;21.07;11.53;;;;;-1.10;101311.00;;;;9878608;29;20212;-81
2022/01/10 07:38:23;;;;;;;26.73;11.63;;;;;-1.10;101322.00;;;;9867113;29;20729;-81
2022/01/10 07:43:25;;;;;;;23.00;12.40;;;;;-0.80;101327.00;;;;9867274;30;20207;-80
2022/01/10 07:48:35;;;;;;;23.47;9.60;;;;;-0.70;101355.00;;;;9866705;30;20215;-81
2022/01/10 07:53:39;;;;;;;23.57;10.50;;;;;-0.70;101372.00;;;;9880406;30;20223;-80
2022/01/10 07:58:41;;;;;;;20.10;10.97;;;;;-0.70;101382.00;;;;9880199;30;20196;-81
2022/01/10 08:03:47;;;;;;;25.97;12.40;;;;;-0.60;101397.00;;;;9895674;29;20203;-80
2022/01/10 08:08:49;;;;;;;31.37;12.70;;;;;-0.60;101391.00;;;;9916455;29;20226;-80
2022/01/10 08:13:52;;;;;;;25.70;13.13;;;;;-0.70;101413.00;;;;9893584;29;20656;-80
2022/01/10 08:18:53;;;;;;;21.60;10.40;;;;;-0.70;101414.00;;;;9891205;29;20257;-80
2022/01/10 08:23:55;;;;;;;26.37;12.93;;;;;-0.60;101424.00;;;;9885456;29;20233;-80
2022/01/10 08:28:57;;;;;;;24.77;12.87;;;;;-0.60;101417.00;;;;9879785;29;20227;-82
2022/01/10 08:34:04;;;;;;;26.37;12.47;;;;;-0.50;101441.00;;;;9891560;29;20204;-81
2022/01/10 08:39:08;;;;;;;23.87;11.87;;;;;-0.50;101453.00;;;;9875433;29;20564;-80
2022/01/10 08:44:10;;;;;;;23.80;10.73;;;;;-0.40;101467.00;;;;9892472;29;20211;-81
2022/01/10 08:49:12;;;;;;;25.17;13.30;;;;;-0.40;101482.00;;;;9900563;29;20222;-80
2022/01/10 08:54:14;;;;;;;31.80;10.77;;;;;-0.30;101500.00;;;;9889388;29;20570;-80
2022/01/10 08:59:17;;;;;;;23.67;10.27;;;;;-0.10;101506.00;;;;9897781;29;20199;-80
2022/01/10 09:04:19;;;;;;;18.97;8.53;;;;;0.10;101516.00;;;;9900853;29;20640;-80
2022/01/10 09:09:22;;;;;;;18.87;9.63;;;;;0.10;101528.00;;;;9908319;29;20238;-80
2022/01/10 09:14:24;;;;;;;24.23;10.87;;;;;0.10;101518.00;;;;9888011;29;20207;-80
2022/01/10 09:19:26;;;;;;;25.90;9.90;;;;;0.20;101521.00;;;;9915133;29;20195;-78
2022/01/10 09:24:29;;;;;;;19.27;8.27;;;;;0.30;101538.00;;;;9903890;29;20237;-81
2022/01/10 09:29:31;;;;;;;22.83;8.80;;;;;0.50;101550.00;;;;9893057;29;20271;-80
2022/01/10 09:34:33;;;;;;;25.23;9.20;;;;;0.70;101564.00;;;;9906751;29;20351;-80
2022/01/10 09:39:35;;;;;;;22.53;10.57;;;;;0.80;101563.00;;;;9922648;29;20652;-81
2022/01/10 09:44:36;;;;;;;30.73;11.37;;;;;0.80;101575.00;;;;9922588;29;20257;-82
2022/01/10 09:49:38;;;;;;;30.17;12.00;;;;;0.80;101575.00;;;;9907294;29;20234;-81
2022/01/10 09:54:43;;;;;;;24.73;10.63;;;;;0.90;101582.00;;;;9900797;29;20195;-82
2022/01/10 09:59:44;;;;;;;27.67;10.67;;;;;0.90;101581.00;;;;9891776;29;20200;-82
2022/01/10 10:04:47;;;;;;;29.67;11.40;;;;;0.90;101583.00;;;;9918495;29;20199;-81
2022/01/10 10:09:49;;;;;;;30.57;11.10;;;;;1.00;101586.00;;;;9903393;29;20288;-81
2022/01/10 10:14:51;;;;;;;33.57;11.20;;;;;1.10;101603.00;;;;9906536;29;20210;-80
2022/01/10 10:19:53;;;;;;;26.43;10.63;;;;;1.10;101616.00;;;;9917952;29;20195;-80
2022/01/10 10:24:55;;;;;;;32.13;12.27;;;;;1.10;101626.00;;;;9920391;29;20207;-80
2022/01/10 10:29:57;;;;;;;24.23;10.93;;;;;1.20;101633.00;;;;9919480;29;20269;-81
2022/01/10 10:34:59;;;;;;;32.77;10.47;;;;;1.20;101646.00;;;;9919809;29;20199;-80
2022/01/10 10:40:07;;;;;;;28.67;11.57;;;;;1.30;101663.00;;;;9918778;29;20214;-80
2022/01/10 10:45:11;;;;;;;33.13;12.50;;;;;1.30;101666.00;;;;9887914;29;20617;-80
2022/01/10 10:50:13;;;;;;;24.63;10.40;;;;;1.40;101663.00;;;;9881402;30;20845;-81
2022/01/10 10:55:15;;;;;;;29.23;11.97;;;;;1.40;101675.00;;;;9882597;30;20203;-80
2022/01/10 11:00:19;;;;;;;30.60;13.03;;;;;1.50;101681.00;;;;9897062;29;20207;-80
2022/01/10 11:05:22;;;;;;;28.93;13.03;;;;;1.50;101686.00;;;;9903479;29;20203;-80
2022/01/10 11:10:24;;;;;;;27.87;14.00;;;;;1.70;101682.00;;;;9903224;29;20231;-79
2022/01/10 11:15:26;;;;;;;29.33;14.87;;;;;1.70;101685.00;;;;9917207;29;20203;-79
2022/01/10 11:20:38;;;;;;;28.97;13.97;;;;;1.80;101702.00;;;;9915782;29;20274;-80
2022/01/10 11:26:06;;;;;;;34.50;15.60;;;;;1.90;101711.00;;;;9875454;29;20226;-79
2022/01/10 11:31:09;;;;;;;33.50;17.00;;;;;2.00;101707.00;;;;9901181;29;20226;-79
2022/01/10 11:36:12;;;;;;;36.37;16.50;;;;;2.10;101710.00;;;;9916314;29;20195;-79
2022/01/10 11:41:26;;;;;;;37.23;17.50;;;;;2.20;101718.00;;;;9900815;29;20199;-80
2022/01/10 11:46:49;;;;;;;41.07;19.07;;;;;2.40;101727.00;;;;9888907;29;20211;-79
2022/01/10 11:51:51;;;;;;;26.27;15.30;;;;;2.40;101730.00;;;;9881738;29;20226;-79
2022/01/10 11:57:05;;;;;;;32.00;17.13;;;;;2.30;101751.00;;;;9880375;30;20283;-79
2022/01/10 12:02:10;;;;;;;32.67;16.33;;;;;2.40;101754.00;;;;9871078;29;20208;-80
2022/01/10 12:07:16;;;;;;;31.83;17.00;;;;;2.30;101771.00;;;;9894315;29;20254;-80
2022/01/10 12:12:20;;;;;;;33.00;16.60;;;;;2.30;101768.00;;;;9901208;29;20617;-80
2022/01/10 12:17:22;;;;;;;27.87;16.07;;;;;2.30;101771.00;;;;9886179;29;20618;-80
2022/01/10 12:22:24;;;;;;;31.10;16.20;;;;;2.50;101775.00;;;;9913031;29;20271;-80
2022/01/10 12:27:26;;;;;;;28.30;14.40;;;;;2.40;101776.00;;;;9899895;29;20549;-80
2022/01/10 12:32:32;;;;;;;28.73;16.37;;;;;2.40;101779.00;;;;9913845;29;20262;-79
2022/01/10 12:37:34;;;;;;;36.20;17.20;;;;;2.50;101788.00;;;;9908983;29;20664;-80
2022/01/10 12:42:37;;;;;;;29.03;16.30;;;;;2.60;101787.00;;;;9887016;29;20218;-80
2022/01/10 12:47:44;;;;;;;31.53;16.60;;;;;2.60;101797.00;;;;9921641;29;20202;-81
2022/01/10 12:52:46;;;;;;;34.97;19.90;;;;;2.60;101809.00;;;;9899809;29;20268;-80
2022/01/10 12:57:49;;;;;;;29.63;17.87;;;;;2.50;101818.00;;;;9863244;30;20632;-80
2022/01/10 13:02:51;;;;;;;32.17;17.90;;;;;2.50;101810.00;;;;9885255;29;20207;-80
2022/01/10 13:07:54;;;;;;;33.57;17.77;;;;;2.40;101824.00;;;;9914321;29;20260;-80
2022/01/10 13:13:01;;;;;;;30.97;18.00;;;;;2.40;101834.00;;;;9899774;29;20211;-80
2022/01/10 13:18:03;;;;;;;32.83;17.23;;;;;2.40;101849.00;;;;9914489;29;20207;-80
2022/01/10 13:23:08;;;;;;;35.93;17.90;;;;;2.40;101848.00;;;;9911589;29;20203;-80
2022/01/10 13:28:13;;;;;;;31.67;15.67;;;;;2.40;101860.00;;;;9904273;29;20215;-80
2022/01/10 13:33:15;;;;;;;29.13;16.47;;;;;2.40;101858.00;;;;9901138;29;20260;-79
2022/01/10 13:38:24;;;;;;;34.73;16.60;;;;;2.30;101870.00;;;;9890793;29;20212;-79
2022/01/10 13:43:30;;;;;;;31.43;16.70;;;;;2.30;101862.00;;;;9897751;30;20334;-80
2022/01/10 13:48:37;;;;;;;32.27;16.53;;;;;2.30;101883.00;;;;9895251;29;20297;-80
2022/01/10 13:53:42;;;;;;;31.63;16.30;;;;;2.20;101879.00;;;;9910666;29;20199;-79
2022/01/10 13:58:45;;;;;;;35.77;16.17;;;;;2.00;101884.00;;;;9904999;29;20228;-80
2022/01/10 14:03:49;;;;;;;27.80;15.53;;;;;1.90;101887.00;;;;9904628;29;20267;-79
2022/01/10 14:08:58;;;;;;;26.17;14.43;;;;;1.90;101889.00;;;;9919937;29;20344;-80
2022/01/10 14:14:04;;;;;;;29.13;14.30;;;;;1.80;101901.00;;;;9888151;29;20202;-80
2022/01/10 14:19:09;;;;;;;26.93;13.93;;;;;1.70;101903.00;;;;9921011;29;20537;-80
2022/01/10 14:24:11;;;;;;;27.27;15.70;;;;;1.60;101902.00;;;;9905608;29;20252;-79
2022/01/10 14:29:13;;;;;;;33.80;16.60;;;;;1.70;101909.00;;;;9919098;29;20599;-80
2022/01/10 14:34:16;;;;;;;38.87;17.03;;;;;1.60;101925.00;;;;9920236;29;20199;-80
2022/01/10 14:39:18;;;;;;;30.30;14.33;;;;;1.70;101932.00;;;;9876804;29;20238;-79
2022/01/10 14:44:20;;;;;;;26.47;14.40;;;;;1.60;101940.00;;;;9911007;29;20207;-79
2022/01/10 14:49:22;;;;;;;29.47;14.40;;;;;1.50;101939.00;;;;9918272;29;20227;-79
2022/01/10 14:54:24;;;;;;;25.23;14.63;;;;;1.40;101948.00;;;;9899706;29;20679;-80
2022/01/10 14:59:27;;;;;;;24.17;12.83;;;;;1.40;101961.00;;;;9903510;29;20231;-79
2022/01/10 15:04:29;;;;;;;24.50;13.30;;;;;1.20;101965.00;;;;9906626;29;20256;-79
2022/01/10 15:09:31;;;;;;;27.23;13.63;;;;;1.20;101968.00;;;;9912135;29;20235;-79
2022/01/10 15:14:33;;;;;;;26.37;14.07;;;;;1.10;101976.00;;;;9866110;30;20208;-80
2022/01/10 15:19:35;;;;;;;27.57;15.30;;;;;1.10;101993.00;;;;9866612;30;20200;-79
2022/01/10 15:24:39;;;;;;;29.53;15.03;;;;;1.10;101990.00;;;;9882316;29;20734;-81
2022/01/10 15:29:41;;;;;;;31.73;15.00;;;;;1.10;101997.00;;;;9898036;29;20272;-80
2022/01/10 15:34:43;;;;;;;26.53;14.23;;;;;1.10;102009.00;;;;9915891;29;20210;-80
2022/01/10 15:39:45;;;;;;;26.40;14.30;;;;;1.00;102027.00;;;;9913990;29;20203;-80
2022/01/10 15:44:52;;;;;;;29.07;14.53;;;;;1.00;102035.00;;;;9915569;29;20207;-80
2022/01/10 15:49:54;;;;;;;23.63;12.40;;;;;0.90;102037.00;;;;9917151;29;20264;-79
2022/01/10 15:54:57;;;;;;;35.73;14.97;;;;;0.90;102026.00;;;;9910664;29;20313;-79
2022/01/10 15:59:59;;;;;;;34.90;15.57;;;;;0.90;102034.00;;;;9916322;29;20199;-79
2022/01/10 16:05:11;;;;;;;32.57;14.80;;;;;0.90;102040.00;;;;9917873;29;20229;-80
2022/01/10 16:10:15;;;;;;;24.73;11.87;;;;;0.90;102045.00;;;;9901549;29;20748;-80
2022/01/10 16:15:19;;;;;;;28.90;13.93;;;;;0.80;102057.00;;;;9902000;29;20226;-80
2022/01/10 16:20:21;;;;;;;25.90;13.17;;;;;0.70;102068.00;;;;9903755;29;20203;-80
2022/01/10 16:25:23;;;;;;;33.97;14.40;;;;;0.70;102076.00;;;;9900981;29;20229;-80
2022/01/10 16:30:27;;;;;;;40.17;17.87;;;;;0.70;102084.00;;;;9915675;29;20284;-80
2022/01/10 16:35:29;;;;;;;43.33;17.30;;;;;0.80;102098.00;;;;9916252;29;20220;-80
2022/01/10 16:40:35;;;;;;;36.40;17.40;;;;;0.90;102099.00;;;;9900772;29;20207;-80
2022/01/10 16:45:37;;;;;;;34.07;17.47;;;;;0.80;102109.00;;;;9901442;29;20207;-80
2022/01/10 16:50:39;;;;;;;39.40;17.40;;;;;0.80;102108.00;;;;9893909;30;20227;-80
2022/01/10 16:55:41;;;;;;;45.27;18.93;;;;;0.80;102122.00;;;;9897744;29;20272;-80
2022/01/10 17:00:43;;;;;;;40.27;17.70;;;;;0.90;102132.00;;;;9899487;29;20298;-80
2022/01/10 17:05:46;;;;;;;40.77;18.53;;;;;0.90;102147.00;;;;9914142;29;20203;-79
2022/01/10 17:10:50;;;;;;;37.90;19.30;;;;;1.00;102157.00;;;;9928828;29;20226;-79
2022/01/10 17:15:54;;;;;;;42.30;18.60;;;;;1.00;102162.00;;;;9916050;29;20234;-79
2022/01/10 17:20:58;;;;;;;52.33;23.30;;;;;1.00;102165.00;;;;9921547;29;20199;-80
2022/01/10 17:26:02;;;;;;;42.13;19.73;;;;;1.00;102193.00;;;;9899477;30;20199;-80
2022/01/10 17:31:04;;;;;;;37.17;18.17;;;;;1.00;102193.00;;;;9885097;29;20234;-81
2022/01/10 17:36:07;;;;;;;40.40;21.03;;;;;1.00;102194.00;;;;9921151;29;20276;-80
2022/01/10 17:41:09;;;;;;;37.83;19.50;;;;;1.00;102202.00;;;;9890900;29;20567;-79
2022/01/10 17:46:12;;;;;;;41.43;19.57;;;;;1.00;102195.00;;;;9920715;29;20892;-80
2022/01/10 17:51:23;;;;;;;46.90;21.47;;;;;1.00;102202.00;;;;9919538;29;20359;-79
2022/01/10 17:56:25;;;;;;;48.07;20.47;;;;;1.00;102201.00;;;;9918129;29;20626;-80
2022/01/10 18:01:26;;;;;;;41.90;20.03;;;;;1.00;102202.00;;;;9904283;29;20269;-79
2022/01/10 18:06:29;;;;;;;45.47;20.53;;;;;1.00;102204.00;;;;9899065;29;20224;-80
2022/01/10 18:11:30;;;;;;;41.10;20.57;;;;;1.00;102205.00;;;;9893067;29;20714;-79
2022/01/10 18:16:33;;;;;;;39.03;20.10;;;;;1.00;102218.00;;;;9868814;30;20210;-79
2022/01/10 18:21:36;;;;;;;40.60;19.63;;;;;1.00;102227.00;;;;9883404;30;20656;-80
2022/01/10 18:26:37;;;;;;;45.73;23.20;;;;;1.00;102229.00;;;;9867166;29;20207;-79
2022/01/10 18:31:40;;;;;;;47.20;21.30;;;;;1.00;102233.00;;;;9882906;30;20224;-80
2022/01/10 18:36:42;;;;;;;38.37;20.07;;;;;1.00;102242.00;;;;9868093;30;20204;-80
2022/01/10 18:41:43;;;;;;;45.83;21.57;;;;;1.00;102245.00;;;;9904585;29;20207;-80
2022/01/10 18:46:45;;;;;;;40.20;21.13;;;;;1.00;102257.00;;;;9904658;29;20207;-80
2022/01/10 18:51:47;;;;;;;42.20;21.43;;;;;1.00;102254.00;;;;9919321;29;20628;-80
2022/01/10 18:56:49;;;;;;;50.30;22.53;;;;;1.00;102263.00;;;;9906738;29;20210;-80
2022/01/10 19:01:51;;;;;;;54.93;22.50;;;;;1.10;102277.00;;;;9904161;29;20207;-80
2022/01/10 19:06:53;;;;;;;51.10;23.90;;;;;1.10;102282.00;;;;9906911;29;20691;-79
2022/01/10 19:11:55;;;;;;;51.43;23.03;;;;;1.10;102299.00;;;;9891887;29;20265;-80
2022/01/10 19:16:57;;;;;;;46.23;22.60;;;;;1.10;102308.00;;;;9918163;29;20263;-80
2022/01/10 19:21:59;;;;;;;48.03;22.50;;;;;1.10;102296.00;;;;9916787;29;20545;-80
2022/01/10 19:27:02;;;;;;;47.67;23.10;;;;;1.10;102307.00;;;;9917844;29;20239;-80
2022/01/10 19:32:05;;;;;;;49.17;23.63;;;;;1.10;102318.00;;;;9917423;29;20223;-80
2022/01/10 19:37:07;;;;;;;43.13;22.03;;;;;1.10;102309.00;;;;9902764;29;20203;-80
2022/01/10 19:42:09;;;;;;;38.63;19.10;;;;;1.10;102302.00;;;;9880177;30;20203;-80
2022/01/10 19:47:11;;;;;;;49.27;22.67;;;;;1.10;102293.00;;;;9894549;30;20208;-80
2022/01/10 19:52:13;;;;;;;50.10;23.73;;;;;1.10;102308.00;;;;9879497;30;20224;-80
2022/01/10 19:57:15;;;;;;;45.30;23.70;;;;;1.10;102311.00;;;;9869522;29;20215;-81
2022/01/10 20:02:17;;;;;;;48.07;23.80;;;;;1.10;102306.00;;;;9901683;29;20252;-79
2022/01/10 20:07:19;;;;;;;50.87;23.30;;;;;1.10;102327.00;;;;9915775;29;20666;-80
2022/01/10 20:12:21;;;;;;;49.37;22.80;;;;;1.10;102322.00;;;;9930079;29;20214;-79
2022/01/10 20:17:23;;;;;;;59.13;25.67;;;;;1.00;102325.00;;;;9915859;29;20203;-80
2022/01/10 20:22:25;;;;;;;50.93;24.30;;;;;1.10;102329.00;;;;9901094;29;20198;-80
2022/01/10 20:27:27;;;;;;;52.57;24.83;;;;;1.10;102329.00;;;;9900754;29;20211;-78
2022/01/10 20:32:28;;;;;;;53.83;26.27;;;;;1.10;102328.00;;;;9915293;29;20231;-79
2022/01/10 20:37:30;;;;;;;55.90;24.30;;;;;1.10;102327.00;;;;9915131;29;20222;-80
2022/01/10 20:42:32;;;;;;;55.40;26.27;;;;;1.10;102343.00;;;;9900857;29;20198;-80
2022/01/10 20:47:34;;;;;;;43.30;24.30;;;;;1.10;102334.00;;;;9896741;29;20207;-80
2022/01/10 20:52:37;;;;;;;45.33;23.43;;;;;1.00;102336.00;;;;9877276;30;20711;-80
2022/01/10 20:57:39;;;;;;;42.60;22.27;;;;;1.00;102333.00;;;;9848779;30;20204;-80
2022/01/10 21:02:40;;;;;;;40.23;19.97;;;;;1.00;102339.00;;;;9878240;30;20204;-79
2022/01/10 21:07:47;;;;;;;43.10;23.57;;;;;1.00;102347.00;;;;9882290;29;20234;-79
2022/01/10 21:12:49;;;;;;;42.87;22.50;;;;;1.00;102351.00;;;;9901108;29;20275;-80
2022/01/10 21:17:51;;;;;;;46.43;22.90;;;;;1.00;102372.00;;;;9915167;29;20207;-80
2022/01/10 21:22:54;;;;;;;38.10;21.67;;;;;1.00;102364.00;;;;9899645;29;20203;-80
2022/01/10 21:27:56;;;;;;;46.77;23.33;;;;;1.00;102368.00;;;;9914266;29;20229;-80
2022/01/10 21:32:58;;;;;;;44.80;27.40;;;;;1.00;102362.00;;;;9899587;29;20231;-80
2022/01/10 21:38:02;;;;;;;41.73;24.23;;;;;1.10;102378.00;;;;9899545;29;20203;-79
2022/01/10 21:43:04;;;;;;;44.07;24.37;;;;;1.10;102377.00;;;;9885573;29;20199;-80
2022/01/10 21:48:07;;;;;;;46.93;27.10;;;;;1.10;102391.00;;;;9899914;29;20329;-80
2022/01/10 21:53:10;;;;;;;42.60;25.60;;;;;1.10;102386.00;;;;9884921;29;20272;-79
2022/01/10 21:58:12;;;;;;;52.67;29.50;;;;;1.10;102390.00;;;;9863005;30;20283;-79
2022/01/10 22:03:14;;;;;;;60.43;32.67;;;;;1.20;102403.00;;;;9881413;30;20195;-80
2022/01/10 22:08:16;;;;;;;57.93;31.60;;;;;1.20;102411.00;;;;9877807;29;20242;-80
2022/01/10 22:13:19;;;;;;;60.87;34.77;;;;;1.20;102412.00;;;;9899241;29;20228;-80
2022/01/10 22:18:21;;;;;;;65.07;33.70;;;;;1.20;102422.00;;;;9884018;30;20208;-79
2022/01/10 22:23:22;;;;;;;60.20;32.30;;;;;1.30;102449.00;;;;9868292;30;20215;-80
2022/01/10 22:28:25;;;;;;;58.83;30.97;;;;;1.20;102449.00;;;;9869418;30;20204;-80
2022/01/10 22:33:29;;;;;;;50.97;28.77;;;;;1.30;102447.00;;;;9898351;30;20232;-80
2022/01/10 22:38:31;;;;;;;59.40;31.10;;;;;1.20;102443.00;;;;9922523;29;20265;-80
2022/01/10 22:43:33;;;;;;;54.27;30.07;;;;;1.20;102457.00;;;;9890829;29;20195;-80
2022/01/10 22:48:35;;;;;;;50.13;30.97;;;;;1.20;102468.00;;;;9905307;29;20200;-80
2022/01/10 22:53:37;;;;;;;57.00;28.73;;;;;1.30;102457.00;;;;9919601;29;20370;-80
2022/01/10 22:58:40;;;;;;;47.07;26.17;;;;;1.30;102452.00;;;;9934800;29;20203;-80
2022/01/10 23:03:43;;;;;;;53.47;29.70;;;;;1.30;102465.00;;;;9883614;29;20204;-79
2022/01/10 23:08:46;;;;;;;52.73;27.53;;;;;1.30;102474.00;;;;9874701;29;20234;-80
2022/01/10 23:13:49;;;;;;;45.33;27.20;;;;;1.30;102473.00;;;;9902808;29;20254;-80
2022/01/10 23:18:51;;;;;;;52.13;29.30;;;;;1.30;102469.00;;;;9889471;29;20236;-79
2022/01/10 23:23:55;;;;;;;43.37;24.77;;;;;1.20;102477.00;;;;9918205;29;20252;-79
2022/01/10 23:28:57;;;;;;;47.13;27.30;;;;;1.30;102489.00;;;;9917122;29;20224;-79
2022/01/10 23:34:01;;;;;;;53.53;28.80;;;;;1.20;102487.00;;;;9865628;30;20296;-79
2022/01/10 23:39:06;;;;;;;50.80;27.70;;;;;1.20;102470.00;;;;9864863;30;20215;-80
2022/01/10 23:44:07;;;;;;;45.70;25.23;;;;;1.20;102457.00;;;;9864070;30;20204;-79
2022/01/10 23:49:09;;;;;;;45.27;24.47;;;;;1.10;102431.00;;;;9865174;30;20208;-80
2022/01/10 23:54:12;;;;;;;42.53;22.97;;;;;1.10;102453.00;;;;9865345;29;20206;-79
2022/01/10 23:59:14;;;;;;;40.27;23.43;;;;;1.00;102458.00;;;;9879797;30;20214;-80
